createdAt,value
2023-04-19T00:01:54.979Z,10.10
2023-04-19T00:04:31.784Z,10.10
2023-04-19T00:07:11.260Z,10.09
2023-04-19T00:09:47.733Z,10.08
2023-04-19T00:12:24.371Z,10.07
2023-04-19T00:15:09.986Z,10.07
2023-04-19T00:17:46.313Z,10.07
2023-04-19T00:20:23.721Z,10.06
2023-04-19T00:23:03.899Z,10.05
2023-04-19T00:25:41.763Z,10.05
2023-04-19T00:28:18.352Z,10.04
2023-04-19T00:30:54.673Z,10.04
2023-04-19T00:33:31.033Z,10.04
2023-04-19T00:36:08.471Z,10.03
2023-04-19T00:38:44.752Z,10.03
2023-04-19T00:41:28.098Z,10.02
2023-04-19T00:44:04.655Z,10.01
2023-04-19T00:46:43.779Z,10.01
2023-04-19T00:49:21.599Z,10.00
2023-04-19T00:51:58.888Z,10.00
2023-04-19T00:54:36.027Z,10.00
2023-04-19T00:57:12.504Z,10.00
2023-04-19T00:59:49.019Z,10.00
2023-04-19T01:02:25.392Z,10.00
2023-04-19T01:05:02.244Z,10.00
2023-04-19T01:07:39.414Z,10.00
2023-04-19T01:10:17.721Z,9.99
2023-04-19T01:12:54.197Z,10.00
2023-04-19T01:15:32.598Z,9.99
2023-04-19T01:18:09.065Z,9.99
2023-04-19T01:20:45.360Z,9.98
2023-04-19T01:23:21.894Z,9.98
2023-04-19T01:25:58.935Z,9.97
2023-04-19T01:28:35.292Z,9.96
2023-04-19T01:31:12.161Z,9.95
2023-04-19T01:33:57.167Z,9.94
2023-04-19T01:36:33.405Z,9.92
2023-04-19T01:39:10.993Z,9.92
2023-04-19T01:41:49.250Z,9.91
2023-04-19T01:44:39.735Z,9.91
2023-04-19T01:47:18.242Z,9.90
2023-04-19T01:49:54.721Z,9.88
2023-04-19T01:52:31.131Z,9.88
2023-04-19T01:55:08.233Z,9.87
2023-04-19T01:57:45.108Z,9.86
2023-04-19T02:00:22.476Z,9.84
2023-04-19T02:02:59.164Z,9.83
2023-04-19T02:05:36.869Z,9.80
2023-04-19T02:08:13.185Z,9.79
2023-04-19T02:10:51.874Z,9.77
2023-04-19T02:13:28.353Z,9.75
2023-04-19T02:16:06.206Z,9.72
2023-04-19T02:18:42.732Z,9.70
2023-04-19T02:21:18.989Z,9.68
2023-04-19T02:23:56.989Z,9.66
2023-04-19T02:26:33.459Z,9.64
2023-04-19T02:29:10.049Z,9.62
2023-04-19T02:31:53.442Z,9.60
2023-04-19T02:34:30.552Z,9.57
2023-04-19T02:37:09.464Z,9.55
2023-04-19T02:39:46.063Z,9.52
2023-04-19T02:42:22.508Z,9.49
2023-04-19T02:45:00.709Z,9.45
2023-04-19T02:47:36.997Z,9.42
2023-04-19T02:50:16.276Z,9.38
2023-04-19T02:52:54.601Z,9.34
2023-04-19T02:55:33.544Z,9.31
2023-04-19T02:58:20.174Z,9.26
2023-04-19T03:01:10.442Z,9.23
2023-04-19T03:03:47.143Z,9.20
2023-04-19T03:06:23.477Z,9.19
2023-04-19T03:09:00.175Z,9.17
2023-04-19T03:11:38.750Z,9.15
2023-04-19T03:14:15.458Z,9.14
2023-04-19T03:16:51.997Z,9.13
2023-04-19T03:19:28.668Z,9.11
2023-04-19T03:22:04.939Z,9.10
2023-04-19T03:24:41.930Z,9.09
2023-04-19T03:27:30.985Z,9.07
2023-04-19T03:30:13.872Z,9.06
2023-04-19T03:32:52.975Z,9.02
2023-04-19T03:35:32.441Z,9.00
2023-04-19T03:38:13.517Z,8.97
2023-04-19T03:40:51.309Z,8.95
2023-04-19T03:43:32.588Z,8.92
2023-04-19T03:46:10.124Z,8.89
2023-04-19T03:48:47.075Z,8.88
2023-04-19T03:51:23.631Z,8.87
2023-04-19T03:53:59.973Z,8.85
2023-04-19T03:56:37.174Z,8.83
2023-04-19T03:59:13.741Z,8.81
2023-04-19T04:01:50.869Z,8.80
2023-04-19T04:04:27.772Z,8.78
2023-04-19T04:07:04.454Z,8.77
2023-04-19T04:09:41.059Z,8.75
2023-04-19T04:12:17.830Z,8.74
2023-04-19T04:14:54.330Z,8.72
2023-04-19T04:17:31.113Z,8.71
2023-04-19T04:20:13.535Z,8.70
2023-04-19T04:22:50.769Z,8.69
2023-04-19T04:25:28.996Z,8.70
2023-04-19T04:28:11.181Z,8.72
2023-04-19T04:30:51.992Z,8.74
2023-04-19T04:33:29.411Z,8.76
2023-04-19T04:36:09.612Z,8.79
2023-04-19T04:38:53.767Z,8.83
2023-04-19T04:41:31.667Z,8.89
2023-04-19T04:44:23.046Z,8.95
2023-04-19T04:46:58.301Z,8.99
2023-04-19T04:49:36.532Z,9.02
2023-04-19T04:52:12.987Z,9.05
2023-04-19T04:54:58.408Z,9.06
2023-04-19T04:57:39.335Z,9.06
2023-04-19T05:00:18.839Z,9.06
2023-04-19T05:03:03.662Z,9.08
2023-04-19T05:05:44.341Z,9.09
2023-04-19T05:08:21.455Z,9.12
2023-04-19T05:10:58.079Z,9.14
2023-04-19T05:13:35.790Z,9.17
2023-04-19T05:16:12.957Z,9.20
2023-04-19T05:18:51.427Z,9.24
2023-04-19T05:21:28.406Z,9.28
2023-04-19T05:24:05.820Z,9.34
2023-04-19T05:26:48.102Z,9.40
2023-04-19T05:29:25.786Z,9.44
2023-04-19T05:32:05.340Z,9.45
2023-04-19T05:34:45.630Z,9.47
2023-04-19T05:37:24.535Z,9.47
2023-04-19T05:40:10.811Z,9.46
2023-04-19T05:42:47.181Z,9.44
2023-04-19T05:45:24.265Z,9.43
2023-04-19T05:48:00.991Z,9.40
2023-04-19T05:51:01.860Z,9.38
2023-04-19T05:53:46.554Z,9.35
2023-04-19T05:56:23.693Z,9.34
2023-04-19T05:59:01.238Z,9.32
2023-04-19T06:01:40.752Z,9.30
2023-04-19T06:04:17.630Z,9.29
2023-04-19T06:06:54.632Z,9.28
2023-04-19T06:09:31.128Z,9.30
2023-04-19T06:12:07.746Z,9.30
2023-04-19T06:14:49.140Z,9.30
2023-04-19T06:17:25.798Z,9.31
2023-04-19T06:20:02.509Z,9.34
2023-04-19T06:22:45.776Z,9.35
2023-04-19T06:25:22.260Z,9.38
2023-04-19T06:27:58.509Z,9.42
2023-04-19T06:30:34.926Z,9.46
2023-04-19T06:33:11.236Z,9.52
2023-04-19T06:35:49.961Z,9.60
2023-04-19T06:38:26.111Z,9.72
2023-04-19T06:41:02.487Z,9.81
2023-04-19T06:43:40.748Z,9.87
2023-04-19T06:46:17.072Z,9.99
2023-04-19T06:48:53.371Z,10.12
2023-04-19T06:51:29.615Z,10.27
2023-04-19T06:54:13.716Z,10.42
2023-04-19T06:56:52.691Z,10.47
2023-04-19T06:59:31.717Z,10.48
2023-04-19T07:02:08.668Z,10.46
2023-04-19T07:04:45.369Z,10.41
2023-04-19T07:07:22.038Z,10.34
2023-04-19T07:09:58.381Z,10.25
2023-04-19T07:12:34.592Z,10.17
2023-04-19T07:15:14.247Z,10.08
2023-04-19T07:17:50.574Z,10.02
2023-04-19T07:20:27.446Z,9.98
2023-04-19T07:23:03.777Z,9.92
2023-04-19T07:25:40.024Z,9.85
2023-04-19T07:28:17.027Z,9.80
2023-04-19T07:30:53.431Z,9.77
2023-04-19T07:33:33.012Z,9.68
2023-04-19T07:36:10.872Z,9.62
2023-04-19T07:38:47.408Z,9.59
2023-04-19T07:41:25.509Z,9.60
2023-04-19T07:44:02.188Z,9.62
2023-04-19T07:46:38.967Z,9.63
2023-04-19T07:49:15.230Z,9.66
2023-04-19T07:51:51.598Z,9.67
2023-04-19T07:54:27.945Z,9.68
2023-04-19T07:57:04.597Z,9.68
2023-04-19T07:59:41.447Z,9.71
2023-04-19T08:02:19.261Z,9.72
2023-04-19T08:04:58.168Z,9.75
2023-04-19T08:07:34.794Z,9.80
2023-04-19T08:10:14.455Z,9.86
2023-04-19T08:16:18.058Z,10.09
2023-04-19T08:18:38.117Z,10.28
2023-04-19T08:21:14.842Z,10.43
2023-04-19T08:23:55.460Z,10.55
2023-04-19T08:26:33.930Z,10.68
2023-04-19T08:29:12.290Z,10.77
2023-04-19T08:31:51.487Z,10.84
2023-04-19T08:34:27.949Z,10.86
2023-04-19T08:37:04.913Z,10.87
2023-04-19T08:39:41.633Z,10.89
2023-04-19T08:47:58.910Z,10.62
2023-04-19T08:50:48.734Z,10.47
2023-04-19T08:53:40.554Z,10.34
2023-04-19T08:56:34.922Z,10.26
2023-04-19T08:59:18.537Z,10.18
2023-04-19T09:01:59.417Z,10.14
2023-04-19T09:04:37.878Z,10.13
2023-04-19T09:07:27.854Z,10.14
2023-04-19T09:10:18.870Z,10.11
2023-04-19T09:13:09.809Z,10.03
2023-04-19T09:15:46.614Z,9.95
2023-04-19T09:18:23.186Z,9.88
2023-04-19T09:21:00.576Z,9.81
2023-04-19T09:23:53.821Z,9.72
2023-04-19T09:26:30.924Z,9.63
2023-04-19T09:29:09.187Z,9.56
2023-04-19T09:32:02.007Z,9.48
2023-04-19T09:34:51.745Z,9.43
2023-04-19T09:40:27.988Z,9.30
2023-04-19T09:45:48.959Z,9.18
2023-04-19T09:48:27.854Z,9.15
2023-04-19T09:51:10.058Z,9.13
2023-04-19T09:53:50.091Z,9.13
2023-04-19T09:56:26.660Z,9.13
2023-04-19T09:59:20.330Z,9.12
2023-04-19T10:02:00.759Z,9.11
2023-04-19T10:05:03.174Z,9.09
2023-04-19T10:07:50.302Z,9.09
2023-04-19T10:10:41.311Z,9.08
2023-04-19T10:13:26.628Z,9.08
2023-04-19T10:16:18.330Z,9.10
2023-04-19T10:19:09.376Z,9.12
2023-04-19T10:21:56.607Z,9.14
2023-04-19T10:24:32.918Z,9.15
2023-04-19T10:27:16.546Z,9.18
2023-04-19T10:30:08.177Z,9.24
2023-04-19T10:32:53.514Z,9.29
2023-04-19T10:35:38.516Z,9.35
2023-04-19T10:38:17.154Z,9.38
2023-04-19T10:41:14.585Z,9.40
2023-04-19T10:44:12.598Z,9.46
2023-04-19T10:46:49.947Z,9.50
2023-04-19T10:49:29.288Z,9.55
2023-04-19T10:52:05.591Z,9.62
2023-04-19T10:54:43.446Z,9.64
2023-04-19T10:57:19.868Z,9.69
2023-04-19T11:00:25.867Z,9.71
2023-04-19T11:03:22.578Z,9.74
2023-04-19T11:06:27.212Z,9.79
2023-04-19T11:09:05.821Z,9.86
2023-04-19T11:11:42.355Z,9.92
2023-04-19T11:14:21.779Z,9.97
2023-04-19T11:16:58.408Z,10.00
2023-04-19T11:19:34.937Z,10.01
2023-04-19T11:22:11.185Z,10.04
2023-04-19T11:24:52.869Z,10.09
2023-04-19T11:27:29.441Z,10.14
2023-04-19T11:30:20.141Z,10.17
2023-04-19T11:33:01.038Z,10.26
2023-04-19T11:35:37.695Z,10.36
2023-04-19T11:38:17.790Z,10.46
2023-04-19T16:29:53.031Z,9.85
2023-04-19T16:32:34.689Z,9.85
2023-04-19T16:35:13.109Z,9.86
2023-04-19T16:37:49.537Z,9.86
2023-04-19T16:40:27.394Z,9.87
2023-04-19T16:43:07.954Z,9.89
2023-04-19T16:45:44.656Z,9.91
2023-04-19T16:48:21.201Z,9.90
2023-04-19T16:50:57.675Z,9.90
2023-04-19T16:53:35.598Z,9.90
2023-04-19T16:56:12.859Z,9.90
2023-04-19T16:58:50.256Z,9.89
2023-04-19T17:01:27.044Z,9.88
2023-04-19T17:04:04.505Z,9.84
2023-04-19T17:06:43.333Z,9.79
2023-04-19T17:09:20.121Z,9.74
2023-04-19T17:12:03.288Z,9.69
2023-04-19T17:14:39.981Z,9.63
2023-04-19T17:17:18.310Z,9.59
2023-04-19T17:19:56.691Z,9.55
2023-04-19T17:22:33.670Z,9.50
2023-04-19T17:25:11.903Z,9.46
2023-04-19T17:27:48.279Z,9.41
2023-04-19T17:30:25.173Z,9.38
2023-04-19T17:33:01.672Z,9.35
2023-04-19T17:35:52.132Z,9.32
2023-04-19T17:38:28.385Z,9.30
2023-04-19T17:41:04.757Z,9.28
2023-04-19T17:43:41.026Z,9.26
2023-04-19T17:46:22.349Z,9.25
2023-04-19T17:48:58.790Z,9.22
2023-04-19T17:51:35.944Z,9.19
2023-04-19T17:54:12.820Z,9.16
2023-04-19T17:56:54.018Z,9.13
2023-04-19T17:59:31.968Z,9.10
2023-04-19T18:02:10.483Z,9.05
2023-04-19T18:04:57.783Z,8.99
2023-04-19T18:07:34.586Z,8.91
2023-04-19T18:10:13.700Z,8.84
2023-04-19T18:12:50.208Z,8.75
2023-04-19T18:15:27.086Z,8.66
2023-04-19T18:18:03.607Z,8.58
2023-04-19T18:20:40.043Z,8.53
2023-04-19T18:23:16.414Z,8.48
2023-04-19T18:26:04.066Z,8.47
2023-04-19T18:28:40.926Z,8.44
2023-04-19T18:31:17.665Z,8.44
2023-04-19T18:33:54.023Z,8.42
2023-04-19T18:36:30.593Z,8.42
2023-04-19T18:39:13.298Z,8.41
2023-04-19T18:41:50.178Z,8.40
2023-04-19T18:44:49.598Z,8.39
2023-04-19T18:47:23.696Z,8.39
2023-04-19T18:50:05.169Z,8.38
2023-04-19T18:52:43.751Z,8.36
2023-04-19T18:55:22.885Z,8.33
2023-04-19T18:58:01.438Z,8.29
2023-04-19T19:00:39.615Z,8.24
2023-04-19T19:03:46.870Z,8.19
2023-04-19T19:06:14.279Z,8.15
2023-04-19T19:08:51.187Z,8.11
2023-04-19T19:11:52.027Z,8.09
2023-04-19T19:14:25.410Z,8.06
2023-04-19T19:17:02.268Z,8.06
2023-04-19T19:19:39.112Z,8.06
2023-04-19T19:22:25.808Z,8.06
2023-04-19T19:25:04.681Z,8.05
2023-04-19T19:27:46.873Z,8.04
2023-04-19T19:30:42.896Z,8.04
2023-04-19T19:33:19.848Z,8.05
2023-04-19T19:36:02.152Z,8.06
2023-04-19T19:38:41.898Z,8.07
2023-04-19T19:42:04.646Z,8.07
2023-04-19T19:44:37.320Z,8.09
2023-04-19T19:47:16.795Z,8.10
2023-04-19T19:50:43.719Z,8.11
2023-04-19T19:52:51.590Z,8.13
2023-04-19T19:55:30.189Z,8.15
2023-04-19T20:00:50.258Z,8.18
2023-04-19T20:03:37.405Z,8.20
2023-04-19T20:08:57.387Z,8.24
2023-04-19T20:11:33.864Z,8.26
2023-04-19T20:14:10.672Z,8.28
2023-04-19T20:16:49.278Z,8.29
2023-04-19T20:19:28.718Z,8.32
2023-04-19T20:22:05.291Z,8.34
2023-04-19T20:24:42.651Z,8.36
2023-04-19T20:27:30.279Z,8.39
2023-04-19T20:30:08.274Z,8.40
2023-04-19T20:32:46.216Z,8.43
2023-04-19T20:35:23.346Z,8.45
2023-04-19T20:38:02.877Z,8.47
2023-04-19T20:40:39.383Z,8.50
2023-04-19T20:43:16.832Z,8.52
2023-04-19T20:45:53.604Z,8.56
2023-04-19T20:48:30.216Z,8.58
2023-04-19T20:51:09.034Z,8.60
2023-04-19T20:53:45.818Z,8.62
2023-04-19T20:56:23.137Z,8.63
2023-04-19T20:58:59.431Z,8.64
2023-04-19T21:01:35.744Z,8.64
2023-04-19T21:04:17.431Z,8.65
2023-04-19T21:06:53.878Z,8.66
2023-04-19T21:09:31.334Z,8.66
2023-04-19T21:12:08.013Z,8.65
2023-04-19T21:14:46.641Z,8.64
2023-04-19T21:17:25.104Z,8.64
2023-04-19T21:20:19.135Z,8.64
2023-04-19T21:22:55.418Z,8.64
2023-04-19T21:25:36.096Z,8.63
2023-04-19T21:28:19.703Z,8.64
2023-04-19T21:30:56.004Z,8.64
2023-04-19T21:33:32.244Z,8.64
2023-04-19T21:36:10.005Z,8.64
2023-04-19T21:38:46.707Z,8.64
2023-04-19T21:41:23.061Z,8.62
2023-04-19T21:43:59.481Z,8.61
2023-04-19T21:46:36.758Z,8.61
2023-04-19T21:49:13.112Z,8.60
2023-04-19T21:51:49.463Z,8.59
2023-04-19T21:54:33.278Z,8.58
2023-04-19T21:57:11.270Z,8.57
2023-04-19T21:59:47.547Z,8.56
2023-04-19T22:02:24.340Z,8.55
2023-04-19T22:05:04.349Z,8.53
2023-04-19T22:07:40.755Z,8.51
2023-04-19T22:10:41.156Z,8.48
2023-04-19T22:13:18.232Z,8.46
2023-04-19T22:15:57.278Z,8.42
2023-04-19T22:18:34.681Z,8.39
2023-04-19T22:21:12.086Z,8.36
2023-04-19T22:23:48.726Z,8.32
2023-04-19T22:26:26.142Z,8.27
2023-04-19T22:29:02.696Z,8.22
2023-04-19T22:31:39.210Z,8.14
2023-04-19T22:34:16.042Z,8.06
2023-04-19T22:36:52.904Z,7.98
2023-04-19T22:39:29.583Z,7.90
2023-04-19T22:42:07.284Z,7.82
2023-04-19T22:44:43.642Z,7.75
2023-04-19T22:47:20.242Z,7.67
2023-04-19T22:49:57.124Z,7.60
2023-04-19T22:52:34.711Z,7.52
2023-04-19T22:55:13.211Z,7.44
2023-04-19T22:57:49.570Z,7.34
2023-04-19T23:00:36.164Z,7.25
2023-04-19T23:03:13.189Z,7.16
2023-04-19T23:05:54.312Z,7.07
2023-04-19T23:08:30.814Z,7.00
2023-04-19T23:11:10.257Z,6.92
2023-04-19T23:13:47.630Z,6.84
2023-04-19T23:16:26.106Z,6.77
2023-04-19T23:19:02.497Z,6.69
2023-04-19T23:21:38.832Z,6.62
2023-04-19T23:24:15.478Z,6.55
2023-04-19T23:26:52.478Z,6.48
2023-04-19T23:29:28.992Z,6.41
2023-04-19T23:32:07.360Z,6.36
2023-04-19T23:34:54.788Z,6.29
2023-04-19T23:37:31.102Z,6.23
2023-04-19T23:40:09.239Z,6.17
2023-04-19T23:42:46.072Z,6.10
2023-04-19T23:45:23.032Z,6.04
2023-04-19T23:48:09.026Z,5.99
2023-04-19T23:50:45.837Z,5.93
2023-04-19T23:53:25.651Z,5.87
2023-04-19T23:56:02.118Z,5.81
2023-04-19T23:58:38.330Z,5.75
